createdAt,value
2022-09-21T00:01:11.402Z,99.90
2022-09-21T00:03:38.773Z,99.90
2022-09-21T00:06:11.850Z,99.90
2022-09-21T00:08:38.692Z,99.90
2022-09-21T00:11:06.237Z,99.90
2022-09-21T00:13:34.518Z,99.90
2022-09-21T00:16:01.594Z,99.90
2022-09-21T00:18:28.504Z,99.90
2022-09-21T00:20:55.290Z,99.90
2022-09-21T00:23:22.193Z,99.90
2022-09-21T00:25:48.949Z,99.90
2022-09-21T00:28:16.288Z,99.90
2022-09-21T00:30:43.157Z,99.90
2022-09-21T00:33:10.007Z,99.90
2022-09-21T00:35:38.051Z,99.90
2022-09-21T00:38:04.789Z,99.90
2022-09-21T00:40:32.386Z,99.90
2022-09-21T00:43:15.988Z,99.90
2022-09-21T00:45:44.850Z,99.90
2022-09-21T00:48:11.725Z,99.90
2022-09-21T00:50:45.515Z,99.90
2022-09-21T00:53:12.351Z,99.90
2022-09-21T00:55:47.792Z,99.90
2022-09-21T00:58:20.881Z,99.90
2022-09-21T01:00:47.747Z,99.90
2022-09-21T01:03:14.533Z,99.90
2022-09-21T01:05:41.306Z,99.90
2022-09-21T01:08:11.013Z,99.90
2022-09-21T01:11:08.692Z,99.90
2022-09-21T01:14:13.511Z,99.90
2022-09-21T01:17:18.054Z,99.90
2022-09-21T01:20:25.965Z,99.90
2022-09-21T01:23:22.983Z,99.90
2022-09-21T01:26:08.268Z,99.90
2022-09-21T01:28:41.247Z,99.90
2022-09-21T01:31:14.190Z,99.90
2022-09-21T01:33:46.641Z,99.90
2022-09-21T01:36:18.788Z,99.90
2022-09-21T01:38:49.517Z,99.90
2022-09-21T01:41:21.057Z,99.90
2022-09-21T01:43:53.656Z,99.90
2022-09-21T01:46:22.415Z,99.90
2022-09-21T01:48:54.736Z,99.90
2022-09-21T01:51:25.113Z,99.90
2022-09-21T01:53:56.765Z,99.90
2022-09-21T01:56:32.748Z,99.90
2022-09-21T01:59:40.736Z,99.90
2022-09-21T02:02:15.517Z,99.90
2022-09-21T02:04:42.814Z,99.90
2022-09-21T02:07:10.363Z,99.90
2022-09-21T02:09:38.152Z,99.90
2022-09-21T02:12:05.234Z,99.90
2022-09-21T02:14:33.357Z,99.90
2022-09-21T02:17:14.945Z,99.90
2022-09-21T02:19:55.701Z,99.90
2022-09-21T02:22:47.795Z,99.90
2022-09-21T02:25:28.507Z,99.90
2022-09-21T02:28:02.336Z,99.90
2022-09-21T02:30:31.422Z,99.90
2022-09-21T02:33:24.975Z,99.90
2022-09-21T02:36:56.346Z,99.90
2022-09-21T02:39:59.728Z,99.90
2022-09-21T02:42:31.205Z,99.90
2022-09-21T02:45:05.331Z,99.90
2022-09-21T02:48:19.020Z,99.90
2022-09-21T02:50:50.119Z,99.90
2022-09-21T02:53:22.547Z,99.90
2022-09-21T02:55:53.127Z,99.90
2022-09-21T02:58:26.675Z,99.90
2022-09-21T03:00:56.197Z,99.90
2022-09-21T03:03:24.920Z,99.90
2022-09-21T03:05:54.257Z,99.90
2022-09-21T03:08:21.811Z,99.90
2022-09-21T03:10:48.771Z,99.90
2022-09-21T03:13:15.522Z,99.90
2022-09-21T03:15:42.629Z,99.90
2022-09-21T03:18:19.237Z,99.90
2022-09-21T03:20:46.463Z,99.90
2022-09-21T03:23:13.840Z,99.90
2022-09-21T03:25:43.645Z,99.90
2022-09-21T03:28:10.392Z,99.90
2022-09-21T03:30:37.316Z,99.90
2022-09-21T03:33:04.074Z,99.90
2022-09-21T03:35:30.902Z,99.90
2022-09-21T03:37:57.685Z,99.90
2022-09-21T03:40:24.545Z,99.90
2022-09-21T03:42:51.432Z,99.90
2022-09-21T03:45:18.196Z,99.90
2022-09-21T03:47:44.912Z,99.90
2022-09-21T03:50:12.051Z,99.90
2022-09-21T03:52:38.834Z,99.90
2022-09-21T03:55:07.894Z,99.90
2022-09-21T03:57:38.108Z,99.90
2022-09-21T04:00:08.052Z,99.90
2022-09-21T04:02:36.354Z,99.90
2022-09-21T04:05:03.751Z,99.90
2022-09-21T04:07:34.892Z,99.90
2022-09-21T04:10:06.465Z,99.90
2022-09-21T04:12:34.315Z,99.90
2022-09-21T04:15:01.450Z,99.90
2022-09-21T04:17:28.870Z,99.90
2022-09-21T04:19:55.571Z,99.90
2022-09-21T04:22:22.403Z,99.90
2022-09-21T04:24:49.139Z,99.90
2022-09-21T04:27:15.894Z,99.90
2022-09-21T04:29:42.606Z,99.90
2022-09-21T04:32:11.188Z,99.90
2022-09-21T04:34:37.960Z,99.90
2022-09-21T04:37:07.795Z,99.90
2022-09-21T04:39:35.346Z,99.90
2022-09-21T04:42:02.137Z,99.90
2022-09-21T04:44:28.980Z,99.90
2022-09-21T04:46:55.801Z,99.90
2022-09-21T04:49:22.762Z,99.90
2022-09-21T04:51:50.459Z,99.90
2022-09-21T04:54:17.273Z,99.90
2022-09-21T04:56:43.948Z,99.90
2022-09-21T04:59:10.959Z,99.90
2022-09-21T05:01:38.051Z,99.90
2022-09-21T05:04:04.952Z,99.90
2022-09-21T05:06:33.547Z,99.90
2022-09-21T05:09:00.687Z,99.90
2022-09-21T05:11:27.358Z,99.90
2022-09-21T05:13:54.138Z,99.90
2022-09-21T05:16:21.006Z,99.90
2022-09-21T05:18:47.668Z,99.90
2022-09-21T05:21:15.393Z,99.90
2022-09-21T05:23:42.277Z,99.90
2022-09-21T05:26:09.331Z,99.90
2022-09-21T05:28:39.910Z,99.90
2022-09-21T05:31:44.626Z,99.90
2022-09-21T05:34:27.150Z,99.90
2022-09-21T05:37:32.798Z,99.90
2022-09-21T05:39:59.680Z,99.90
2022-09-21T05:42:26.571Z,99.90
2022-09-21T05:44:54.660Z,99.90
2022-09-21T05:47:44.647Z,99.90
2022-09-21T05:50:34.639Z,99.90
2022-09-21T05:53:19.333Z,99.90
2022-09-21T05:56:00.062Z,99.90
2022-09-21T05:59:07.242Z,99.90
2022-09-21T06:01:34.090Z,99.90
2022-09-21T06:04:02.778Z,99.90
2022-09-21T06:06:29.486Z,99.90
2022-09-21T06:08:56.245Z,99.90
2022-09-21T06:11:22.906Z,99.90
2022-09-21T06:13:49.677Z,99.90
2022-09-21T06:16:16.589Z,99.90
2022-09-21T06:18:43.316Z,99.90
2022-09-21T06:21:10.228Z,99.90
2022-09-21T06:23:37.826Z,99.90
2022-09-21T06:26:04.766Z,99.90
2022-09-21T06:28:31.593Z,99.90
2022-09-21T06:30:58.426Z,99.90
2022-09-21T06:33:25.585Z,99.90
2022-09-21T06:35:57.554Z,99.90
2022-09-21T06:38:25.347Z,99.90
2022-09-21T06:40:52.779Z,99.90
2022-09-21T06:43:20.244Z,99.90
2022-09-21T06:45:55.841Z,99.90
2022-09-21T06:48:22.945Z,99.90
2022-09-21T06:50:50.165Z,99.90
2022-09-21T06:53:17.322Z,99.90
2022-09-21T06:55:44.273Z,99.90
2022-09-21T06:58:11.219Z,99.90
2022-09-21T07:00:37.858Z,99.90
2022-09-21T07:03:04.516Z,99.90
2022-09-21T07:05:32.930Z,99.90
2022-09-21T07:08:00.373Z,99.90
2022-09-21T07:10:27.238Z,99.90
2022-09-21T07:12:54.073Z,99.90
2022-09-21T07:15:21.265Z,99.90
2022-09-21T07:17:51.730Z,99.90
2022-09-21T07:20:18.861Z,99.90
2022-09-21T07:22:45.668Z,99.90
2022-09-21T07:25:12.384Z,99.90
2022-09-21T07:27:39.145Z,99.90
2022-09-21T07:30:06.835Z,99.90
2022-09-21T07:32:33.756Z,99.90
2022-09-21T07:35:01.428Z,99.90
2022-09-21T07:37:28.891Z,99.90
2022-09-21T07:39:55.579Z,99.90
2022-09-21T07:42:22.365Z,99.90
2022-09-21T07:44:49.375Z,99.90
2022-09-21T07:47:16.305Z,99.90
2022-09-21T07:49:43.001Z,99.90
2022-09-21T07:52:11.176Z,99.90
2022-09-21T07:54:38.197Z,99.90
2022-09-21T07:57:04.951Z,99.90
2022-09-21T07:59:31.742Z,99.90
2022-09-21T08:01:58.863Z,99.90
2022-09-21T08:04:25.938Z,99.90
2022-09-21T08:06:52.722Z,99.90
2022-09-21T08:09:19.450Z,99.90
2022-09-21T08:11:46.369Z,99.90
2022-09-21T08:14:13.255Z,99.90
2022-09-21T08:16:40.079Z,99.90
2022-09-21T08:19:07.046Z,99.90
2022-09-21T08:21:33.765Z,99.90
2022-09-21T08:24:00.715Z,99.90
2022-09-21T08:26:27.412Z,99.90
2022-09-21T08:28:54.503Z,99.90
2022-09-21T08:31:22.444Z,99.90
2022-09-21T08:33:50.178Z,99.90
2022-09-21T08:36:17.915Z,99.90
2022-09-21T08:38:44.741Z,99.90
2022-09-21T08:41:34.819Z,99.90
2022-09-21T08:44:10.844Z,99.90
2022-09-21T08:46:38.053Z,99.90
2022-09-21T08:49:16.941Z,99.90
2022-09-21T08:51:56.304Z,99.90
2022-09-21T08:54:52.981Z,99.90
2022-09-21T08:57:20.679Z,99.90
2022-09-21T08:59:49.126Z,99.90
2022-09-21T09:02:40.573Z,99.90
2022-09-21T09:05:17.556Z,99.90
2022-09-21T09:07:57.708Z,99.90
2022-09-21T09:10:36.021Z,99.90
2022-09-21T09:13:40.115Z,99.90
2022-09-21T09:16:26.715Z,99.90
2022-09-21T09:19:28.826Z,99.90
2022-09-21T09:21:56.882Z,99.90
2022-09-21T09:24:46.966Z,99.90
2022-09-21T09:27:28.550Z,99.90
2022-09-21T09:30:17.690Z,99.90
2022-09-21T09:32:54.922Z,99.90
2022-09-21T09:35:45.525Z,99.90
2022-09-21T09:38:36.278Z,99.90
2022-09-21T09:41:24.411Z,99.90
2022-09-21T09:43:59.098Z,99.90
2022-09-21T09:46:28.626Z,99.90
2022-09-21T09:49:24.415Z,99.90
2022-09-21T09:51:51.924Z,99.90
2022-09-21T09:54:21.836Z,99.90
2022-09-21T09:56:48.604Z,99.90
2022-09-21T09:59:29.924Z,99.90
2022-09-21T10:02:03.406Z,99.90
2022-09-21T10:04:30.330Z,99.90
2022-09-21T10:06:58.476Z,99.90
2022-09-21T10:09:33.648Z,99.90
2022-09-21T10:12:09.480Z,99.90
2022-09-21T10:14:37.260Z,99.90
2022-09-21T10:17:07.794Z,99.90
2022-09-21T10:19:34.826Z,99.90
2022-09-21T10:22:04.055Z,99.90
2022-09-21T10:24:38.029Z,99.90
2022-09-21T10:27:14.069Z,99.90
2022-09-21T10:29:45.846Z,99.90
2022-09-21T10:32:14.612Z,99.90
2022-09-21T10:34:59.875Z,99.90
2022-09-21T10:37:31.194Z,99.90
2022-09-21T10:39:57.900Z,99.90
2022-09-21T10:42:25.091Z,99.90
2022-09-21T10:45:26.873Z,99.90
2022-09-21T10:48:07.379Z,99.90
2022-09-21T10:50:38.664Z,99.90
2022-09-21T10:53:20.513Z,99.90
2022-09-21T10:56:17.044Z,99.90
2022-09-21T10:59:21.600Z,99.90
2022-09-21T11:01:54.673Z,99.90
2022-09-21T11:04:43.181Z,99.90
2022-09-21T11:07:27.149Z,99.90
2022-09-21T11:10:12.217Z,99.90
2022-09-21T11:13:02.931Z,99.90
2022-09-21T11:15:36.211Z,99.90
2022-09-21T11:18:20.794Z,99.90
2022-09-21T11:21:03.286Z,99.90
2022-09-21T11:23:47.597Z,99.90
2022-09-21T11:26:33.144Z,99.90
2022-09-21T11:29:09.366Z,99.90
2022-09-21T11:32:13.540Z,99.90
2022-09-21T11:34:45.726Z,99.90
2022-09-21T11:37:50.858Z,99.90
2022-09-21T11:40:59.152Z,99.90
2022-09-21T11:43:34.023Z,99.90
2022-09-21T11:46:22.135Z,99.90
2022-09-21T11:49:13.459Z,99.90
2022-09-21T11:52:10.406Z,99.90
2022-09-21T11:55:00.644Z,99.90
2022-09-21T11:57:56.558Z,99.90
2022-09-21T12:00:24.017Z,99.90
2022-09-21T12:03:12.256Z,99.90
2022-09-21T12:05:51.973Z,99.90
2022-09-21T12:08:37.496Z,99.90
2022-09-21T12:11:33.601Z,99.90
2022-09-21T12:14:18.269Z,99.90
2022-09-21T12:16:59.164Z,99.90
2022-09-21T12:19:50.957Z,99.90
2022-09-21T12:22:28.506Z,99.90
2022-09-21T12:25:14.027Z,99.90
2022-09-21T12:28:00.019Z,99.90
2022-09-21T12:30:29.511Z,99.90
2022-09-21T12:33:10.242Z,99.90
2022-09-21T12:36:03.017Z,99.90
2022-09-21T12:38:51.437Z,99.90
2022-09-21T12:41:33.229Z,99.90
2022-09-21T12:44:46.041Z,99.90
2022-09-21T12:47:14.474Z,97.20
2022-09-21T12:49:48.649Z,98.20
2022-09-21T12:52:22.649Z,99.00
2022-09-21T12:55:07.969Z,99.90
2022-09-21T12:58:14.684Z,99.90
2022-09-21T13:00:55.810Z,97.60
2022-09-21T13:03:58.041Z,99.90
2022-09-21T13:06:42.821Z,98.50
2022-09-21T13:09:15.362Z,95.20
2022-09-21T13:11:55.183Z,94.60
2022-09-21T13:14:24.021Z,94.10
2022-09-21T13:17:00.091Z,95.20
2022-09-21T13:19:31.843Z,96.40
2022-09-21T13:22:12.019Z,96.70
2022-09-21T13:24:39.364Z,95.00
2022-09-21T13:27:06.303Z,95.30
2022-09-21T13:29:35.333Z,95.20
2022-09-21T13:32:12.371Z,94.40
2022-09-21T13:34:44.027Z,95.40
2022-09-21T13:37:19.947Z,95.20
2022-09-21T13:39:50.601Z,95.10
2022-09-21T13:42:32.807Z,95.50
2022-09-21T13:45:12.884Z,96.10
2022-09-21T13:47:42.073Z,97.30
2022-09-21T13:50:27.395Z,96.10
2022-09-21T13:53:04.274Z,94.80
2022-09-21T13:55:30.996Z,94.90
2022-09-21T13:58:04.870Z,95.50
2022-09-21T14:00:39.402Z,96.20
2022-09-21T14:03:17.166Z,95.80
2022-09-21T14:06:14.496Z,94.80
2022-09-21T14:08:52.732Z,95.90
2022-09-21T14:11:34.289Z,94.20
2022-09-21T14:14:26.914Z,95.60
2022-09-21T14:16:59.515Z,95.80
2022-09-21T14:19:26.284Z,95.70
2022-09-21T14:22:05.178Z,95.00
2022-09-21T14:24:41.933Z,94.10
2022-09-21T14:27:33.429Z,94.20
2022-09-21T14:30:28.967Z,94.40
2022-09-21T14:33:01.485Z,95.30
2022-09-21T14:35:40.118Z,95.40
2022-09-21T14:38:41.653Z,96.20
2022-09-21T14:41:11.068Z,95.60
2022-09-21T14:43:40.726Z,95.10
2022-09-21T14:46:10.472Z,94.70
2022-09-21T14:48:41.412Z,93.60
2022-09-21T14:51:22.860Z,93.80
2022-09-21T14:54:11.620Z,93.80
2022-09-21T14:57:02.018Z,94.10
2022-09-21T14:59:54.384Z,93.60
2022-09-21T15:02:27.444Z,94.30
2022-09-21T15:05:28.000Z,94.00
2022-09-21T15:08:10.859Z,92.40
2022-09-21T15:11:42.918Z,93.20
2022-09-21T15:14:33.824Z,94.80
2022-09-21T15:17:00.596Z,94.50
2022-09-21T15:19:28.715Z,92.70
2022-09-21T15:22:16.808Z,92.90
2022-09-21T15:24:55.528Z,93.00
2022-09-21T15:27:25.749Z,93.20
2022-09-21T15:29:55.465Z,92.60
2022-09-21T15:32:54.040Z,93.40
2022-09-21T15:35:23.448Z,95.20
2022-09-21T15:37:51.483Z,93.70
2022-09-21T15:40:24.996Z,94.40
2022-09-21T15:43:12.894Z,94.90
2022-09-21T15:45:56.637Z,93.90
2022-09-21T15:48:25.006Z,94.70
2022-09-21T15:51:14.543Z,94.60
2022-09-21T15:53:46.087Z,94.00
2022-09-21T15:56:24.922Z,94.20
2022-09-21T15:58:58.453Z,94.10
2022-09-21T16:01:25.455Z,94.80
2022-09-21T16:04:07.988Z,95.80
2022-09-21T16:06:39.827Z,97.10
2022-09-21T16:09:24.735Z,97.20
2022-09-21T16:11:53.016Z,96.90
2022-09-21T16:14:20.363Z,96.50
2022-09-21T16:17:16.382Z,96.00
2022-09-21T16:20:06.067Z,96.30
2022-09-21T16:22:44.303Z,96.30
2022-09-21T16:25:20.011Z,96.80
2022-09-21T16:27:56.273Z,97.20
2022-09-21T16:30:46.773Z,97.20
2022-09-21T16:33:47.710Z,97.60
2022-09-21T16:36:17.629Z,97.70
2022-09-21T16:38:44.908Z,97.90
2022-09-21T16:41:11.588Z,98.00
2022-09-21T16:43:38.269Z,97.50
2022-09-21T16:46:05.095Z,98.10
2022-09-21T16:48:31.738Z,98.60
2022-09-21T16:50:58.403Z,99.80
2022-09-21T16:53:25.118Z,99.90
2022-09-21T16:55:51.858Z,99.90
2022-09-21T16:58:18.872Z,99.90
2022-09-21T17:00:46.073Z,99.90
2022-09-21T17:03:12.855Z,99.90
2022-09-21T17:05:39.520Z,99.90
2022-09-21T17:08:06.409Z,99.90
2022-09-21T17:10:38.329Z,99.90
2022-09-21T17:13:05.077Z,99.90
2022-09-21T17:15:32.620Z,99.90
2022-09-21T17:17:59.903Z,99.90
2022-09-21T17:20:41.064Z,99.90
2022-09-21T17:23:08.044Z,99.90
2022-09-21T17:25:35.860Z,99.90
2022-09-21T17:28:11.074Z,99.90
2022-09-21T17:30:37.882Z,99.90
2022-09-21T17:33:04.678Z,99.90
2022-09-21T17:35:40.234Z,99.90
2022-09-21T17:38:11.293Z,99.90
2022-09-21T17:40:41.093Z,99.90
2022-09-21T17:43:14.069Z,99.90
2022-09-21T17:46:18.146Z,99.90
2022-09-21T17:48:45.142Z,99.90
2022-09-21T17:51:12.184Z,99.90
2022-09-21T17:53:39.077Z,99.90
2022-09-21T17:56:40.751Z,99.90
2022-09-21T17:59:24.070Z,99.90
2022-09-21T18:01:50.997Z,99.90
2022-09-21T18:04:18.059Z,99.90
2022-09-21T18:06:45.447Z,99.90
2022-09-21T18:09:12.425Z,99.90
2022-09-21T18:12:00.336Z,99.90
2022-09-21T18:14:32.675Z,99.90
2022-09-21T18:17:37.113Z,99.90
2022-09-21T18:20:33.647Z,99.90
2022-09-21T18:23:16.583Z,99.90
2022-09-21T18:25:45.358Z,99.90
2022-09-21T18:28:18.008Z,99.90
2022-09-21T18:30:55.658Z,99.90
2022-09-21T18:33:38.076Z,99.90
2022-09-21T18:36:13.555Z,99.90
2022-09-21T18:38:55.182Z,99.90
2022-09-21T18:41:36.864Z,99.90
2022-09-21T18:44:23.596Z,99.90
2022-09-21T18:47:02.231Z,99.90
2022-09-21T18:49:46.647Z,99.90
2022-09-21T18:52:44.636Z,99.90
2022-09-21T18:55:25.968Z,99.90
2022-09-21T18:57:57.238Z,99.90
2022-09-21T19:00:26.234Z,99.90
2022-09-21T19:03:15.842Z,99.90
2022-09-21T19:05:44.328Z,99.90
2022-09-21T19:08:20.762Z,99.90
2022-09-21T19:11:12.778Z,99.90
2022-09-21T19:13:51.572Z,99.90
2022-09-21T19:16:21.051Z,99.90
2022-09-21T19:19:01.666Z,99.90
2022-09-21T19:21:40.181Z,99.90
2022-09-21T19:24:34.889Z,99.90
2022-09-21T19:27:37.355Z,99.90
2022-09-21T19:30:08.821Z,99.90
2022-09-21T19:32:37.603Z,99.90
2022-09-21T19:35:19.849Z,99.90
2022-09-21T19:37:47.870Z,99.90
2022-09-21T19:40:20.392Z,99.90
2022-09-21T19:43:24.348Z,99.90
2022-09-21T19:46:18.938Z,99.90
2022-09-21T19:48:48.593Z,99.90
2022-09-21T19:51:19.642Z,99.90
2022-09-21T19:53:54.722Z,99.90
2022-09-21T19:56:21.677Z,99.90
2022-09-21T19:58:49.073Z,99.90
2022-09-21T20:01:19.890Z,99.90
2022-09-21T20:03:48.048Z,99.90
2022-09-21T20:06:26.997Z,99.90
2022-09-21T20:08:56.748Z,99.90
2022-09-21T20:12:01.078Z,99.90
2022-09-21T20:14:53.326Z,99.90
2022-09-21T20:17:36.802Z,99.90
2022-09-21T20:20:14.348Z,99.90
2022-09-21T20:22:41.909Z,99.90
2022-09-21T20:25:55.332Z,99.90
2022-09-21T20:28:22.687Z,99.90
2022-09-21T20:30:49.603Z,99.90
2022-09-21T20:33:18.428Z,99.90
2022-09-21T20:35:45.203Z,99.90
2022-09-21T20:38:11.996Z,99.90
2022-09-21T20:40:40.126Z,99.90
2022-09-21T20:43:08.654Z,99.90
2022-09-21T20:45:35.689Z,99.90
2022-09-21T20:48:03.203Z,99.90
2022-09-21T20:50:32.265Z,99.90
2022-09-21T20:52:59.003Z,99.90
2022-09-21T20:55:25.758Z,99.90
2022-09-21T20:57:52.670Z,99.90
2022-09-21T21:00:19.451Z,99.90
2022-09-21T21:02:46.170Z,99.90
2022-09-21T21:05:12.891Z,99.90
2022-09-21T21:07:42.638Z,99.90
2022-09-21T21:10:10.050Z,99.90
2022-09-21T21:12:36.911Z,99.90
2022-09-21T21:15:04.043Z,99.90
2022-09-21T21:17:30.819Z,99.90
2022-09-21T21:19:57.525Z,99.90
2022-09-21T21:22:24.267Z,99.90
2022-09-21T21:24:51.208Z,99.90
2022-09-21T21:27:21.023Z,99.90
2022-09-21T21:29:49.710Z,99.90
2022-09-21T21:32:19.009Z,99.90
2022-09-21T21:34:46.684Z,99.90
2022-09-21T21:37:14.234Z,99.90
2022-09-21T21:39:40.992Z,99.90
2022-09-21T21:42:08.076Z,99.90
2022-09-21T21:44:34.863Z,99.90
2022-09-21T21:47:15.455Z,99.90
2022-09-21T21:49:48.647Z,99.90
2022-09-21T21:52:15.375Z,99.90
2022-09-21T21:54:42.222Z,99.90
2022-09-21T21:57:09.023Z,99.90
2022-09-21T21:59:35.867Z,99.90
2022-09-21T22:02:02.707Z,99.90
2022-09-21T22:04:29.564Z,99.90
2022-09-21T22:06:56.494Z,99.90
2022-09-21T22:09:23.540Z,99.90
2022-09-21T22:11:50.384Z,99.90
2022-09-21T22:14:17.122Z,99.90
2022-09-21T22:16:44.147Z,99.90
2022-09-21T22:19:10.976Z,99.90
2022-09-21T22:21:43.799Z,99.90
2022-09-21T22:24:10.962Z,99.90
2022-09-21T22:26:46.595Z,99.90
2022-09-21T22:29:15.278Z,99.90
2022-09-21T22:31:47.142Z,99.90
2022-09-21T22:34:14.592Z,99.90
2022-09-21T22:36:42.054Z,99.90
2022-09-21T22:39:09.213Z,99.90
2022-09-21T22:41:38.809Z,99.90
2022-09-21T22:44:06.587Z,99.90
2022-09-21T22:46:34.564Z,99.90
2022-09-21T22:49:01.583Z,99.90
2022-09-21T22:51:29.609Z,99.90
2022-09-21T22:53:57.361Z,99.90
2022-09-21T22:56:26.712Z,99.90
2022-09-21T22:58:56.230Z,99.90
2022-09-21T23:01:40.258Z,99.90
2022-09-21T23:04:10.090Z,99.90
2022-09-21T23:06:38.774Z,99.90
2022-09-21T23:09:08.566Z,99.90
2022-09-21T23:11:43.501Z,99.90
2022-09-21T23:14:11.566Z,99.90
2022-09-21T23:16:38.465Z,99.90
2022-09-21T23:19:05.280Z,99.90
2022-09-21T23:21:32.111Z,99.90
2022-09-21T23:24:01.722Z,99.90
2022-09-21T23:26:31.017Z,99.90
2022-09-21T23:29:03.592Z,99.90
2022-09-21T23:31:32.169Z,99.90
2022-09-21T23:34:03.353Z,99.90
2022-09-21T23:36:31.574Z,99.90
2022-09-21T23:38:58.534Z,99.90
2022-09-21T23:41:26.709Z,99.90
2022-09-21T23:43:54.425Z,99.90
2022-09-21T23:46:24.428Z,99.90
2022-09-21T23:48:51.838Z,99.90
2022-09-21T23:51:19.528Z,99.90
2022-09-21T23:53:46.884Z,99.90
2022-09-21T23:56:17.699Z,99.90
2022-09-21T23:58:44.723Z,99.90
